Rio Piracicaba, Brazil
Current Conditions -  °F | °C
As of 2:00 PM on Friday 19 Dec 2014 (Local Time) from SBCF Reporting Station
Scattered Clouds Scattered Clouds  
Wind Chill: 86°   Ceiling: Unl
Heat Index: 86°   Visibility: 6mi
Dew Point: 61°   Wind: 5mph
Humidity: 43%   Direction: 210°SSW
Pressure: 29.94"   Gusts: NA
Location:  19.93°S, 43.17°W
Report Text: SBCF 191600Z 21004KT 9999 SCT025 30/16 Q1014
Loading
Personal Weather Stations






























Interactive Weather Map New forecast layout! Learn more

10-Day Weather Forecast

Advertisements
Track Severe Weather on mobile